sensor_id;sensor_type;location;lat;lon;timestamp;temperature;humidity
7666;DHT22;3875;46.562;4.898;2023-08-06T00:02:14;19.60;76.10
7666;DHT22;3875;46.562;4.898;2023-08-06T00:04:39;19.60;76.20
7666;DHT22;3875;46.562;4.898;2023-08-06T00:07:05;19.50;76.20
7666;DHT22;3875;46.562;4.898;2023-08-06T00:09:30;19.50;76.30
7666;DHT22;3875;46.562;4.898;2023-08-06T00:11:56;19.30;76.60
7666;DHT22;3875;46.562;4.898;2023-08-06T00:14:22;19.20;76.80
7666;DHT22;3875;46.562;4.898;2023-08-06T00:16:48;19.20;76.80
7666;DHT22;3875;46.562;4.898;2023-08-06T00:19:13;19.10;77.00
7666;DHT22;3875;46.562;4.898;2023-08-06T00:21:39;19.10;77.10
7666;DHT22;3875;46.562;4.898;2023-08-06T00:24:04;19.00;77.30
7666;DHT22;3875;46.562;4.898;2023-08-06T00:26:30;19.10;77.30
7666;DHT22;3875;46.562;4.898;2023-08-06T00:28:56;19.00;77.40
7666;DHT22;3875;46.562;4.898;2023-08-06T00:31:21;19.00;77.50
7666;DHT22;3875;46.562;4.898;2023-08-06T00:33:47;19.00;77.70
7666;DHT22;3875;46.562;4.898;2023-08-06T00:36:13;19.00;77.70
7666;DHT22;3875;46.562;4.898;2023-08-06T00:38:38;19.00;77.40
7666;DHT22;3875;46.562;4.898;2023-08-06T00:41:04;19.00;77.20
7666;DHT22;3875;46.562;4.898;2023-08-06T00:43:30;19.00;77.20
7666;DHT22;3875;46.562;4.898;2023-08-06T00:45:56;19.10;77.00
7666;DHT22;3875;46.562;4.898;2023-08-06T00:48:21;19.10;77.00
7666;DHT22;3875;46.562;4.898;2023-08-06T00:50:47;19.10;76.90
7666;DHT22;3875;46.562;4.898;2023-08-06T00:53:13;19.20;76.80
7666;DHT22;3875;46.562;4.898;2023-08-06T00:55:39;19.20;76.70
7666;DHT22;3875;46.562;4.898;2023-08-06T00:58:05;19.20;76.50
7666;DHT22;3875;46.562;4.898;2023-08-06T01:00:31;19.20;76.70
7666;DHT22;3875;46.562;4.898;2023-08-06T01:02:57;19.10;76.50
7666;DHT22;3875;46.562;4.898;2023-08-06T01:05:22;19.20;76.60
7666;DHT22;3875;46.562;4.898;2023-08-06T01:11:14;19.10;76.70
7666;DHT22;3875;46.562;4.898;2023-08-06T01:13:48;19.00;76.80
7666;DHT22;3875;46.562;4.898;2023-08-06T01:16:18;19.00;77.00
7666;DHT22;3875;46.562;4.898;2023-08-06T01:18:44;18.90;77.00
7666;DHT22;3875;46.562;4.898;2023-08-06T01:21:14;18.90;77.00
7666;DHT22;3875;46.562;4.898;2023-08-06T01:23:41;18.80;77.00
7666;DHT22;3875;46.562;4.898;2023-08-06T01:26:59;18.80;77.20
7666;DHT22;3875;46.562;4.898;2023-08-06T01:31:51;18.70;77.30
7666;DHT22;3875;46.562;4.898;2023-08-06T01:34:21;18.70;77.30
7666;DHT22;3875;46.562;4.898;2023-08-06T01:36:47;18.70;77.30
7666;DHT22;3875;46.562;4.898;2023-08-06T01:39:13;18.60;77.40
7666;DHT22;3875;46.562;4.898;2023-08-06T01:41:39;18.60;77.70
7666;DHT22;3875;46.562;4.898;2023-08-06T01:44:05;18.50;77.90
7666;DHT22;3875;46.562;4.898;2023-08-06T01:46:30;18.50;78.10
7666;DHT22;3875;46.562;4.898;2023-08-06T01:48:56;18.40;78.20
7666;DHT22;3875;46.562;4.898;2023-08-06T01:51:22;18.40;78.20
7666;DHT22;3875;46.562;4.898;2023-08-06T01:53:47;18.40;78.30
7666;DHT22;3875;46.562;4.898;2023-08-06T01:56:13;18.40;78.50
7666;DHT22;3875;46.562;4.898;2023-08-06T01:58:39;18.30;78.60
7666;DHT22;3875;46.562;4.898;2023-08-06T02:01:04;18.20;78.70
7666;DHT22;3875;46.562;4.898;2023-08-06T02:03:30;18.20;78.20
7666;DHT22;3875;46.562;4.898;2023-08-06T02:05:56;18.10;78.20
7666;DHT22;3875;46.562;4.898;2023-08-06T02:08:21;18.10;78.30
7666;DHT22;3875;46.562;4.898;2023-08-06T02:10:47;18.10;78.10
7666;DHT22;3875;46.562;4.898;2023-08-06T02:13:13;18.00;77.90
7666;DHT22;3875;46.562;4.898;2023-08-06T02:15:45;17.90;77.70
7666;DHT22;3875;46.562;4.898;2023-08-06T02:18:13;17.90;77.50
7666;DHT22;3875;46.562;4.898;2023-08-06T02:20:40;17.80;77.50
7666;DHT22;3875;46.562;4.898;2023-08-06T02:23:06;17.80;77.00
7666;DHT22;3875;46.562;4.898;2023-08-06T02:25:31;17.70;77.00
7666;DHT22;3875;46.562;4.898;2023-08-06T02:27:57;17.60;77.40
7666;DHT22;3875;46.562;4.898;2023-08-06T02:30:22;17.70;77.50
7666;DHT22;3875;46.562;4.898;2023-08-06T02:32:49;17.70;77.30
7666;DHT22;3875;46.562;4.898;2023-08-06T02:35:14;17.80;77.10
7666;DHT22;3875;46.562;4.898;2023-08-06T02:37:40;17.80;76.90
7666;DHT22;3875;46.562;4.898;2023-08-06T02:40:06;17.80;76.80
7666;DHT22;3875;46.562;4.898;2023-08-06T02:42:32;17.70;76.80
7666;DHT22;3875;46.562;4.898;2023-08-06T02:44:58;17.70;76.80
7666;DHT22;3875;46.562;4.898;2023-08-06T02:47:23;17.80;76.30
7666;DHT22;3875;46.562;4.898;2023-08-06T02:49:49;17.80;76.40
7666;DHT22;3875;46.562;4.898;2023-08-06T02:52:15;17.80;76.40
7666;DHT22;3875;46.562;4.898;2023-08-06T02:54:41;17.70;76.30
7666;DHT22;3875;46.562;4.898;2023-08-06T02:57:06;17.80;76.40
7666;DHT22;3875;46.562;4.898;2023-08-06T02:59:32;17.80;76.10
7666;DHT22;3875;46.562;4.898;2023-08-06T03:01:58;17.80;76.00
7666;DHT22;3875;46.562;4.898;2023-08-06T03:04:24;17.80;75.60
7666;DHT22;3875;46.562;4.898;2023-08-06T03:06:50;17.80;75.80
7666;DHT22;3875;46.562;4.898;2023-08-06T03:09:17;17.80;75.60
7666;DHT22;3875;46.562;4.898;2023-08-06T03:11:42;17.80;75.40
7666;DHT22;3875;46.562;4.898;2023-08-06T03:14:08;17.80;75.50
7666;DHT22;3875;46.562;4.898;2023-08-06T03:16:34;17.90;75.00
7666;DHT22;3875;46.562;4.898;2023-08-06T03:19:00;17.90;75.20
7666;DHT22;3875;46.562;4.898;2023-08-06T03:21:25;17.90;75.00
7666;DHT22;3875;46.562;4.898;2023-08-06T03:23:51;17.90;75.20
7666;DHT22;3875;46.562;4.898;2023-08-06T03:26:16;17.90;74.90
7666;DHT22;3875;46.562;4.898;2023-08-06T03:28:42;17.90;74.80
7666;DHT22;3875;46.562;4.898;2023-08-06T03:31:08;17.80;75.00
7666;DHT22;3875;46.562;4.898;2023-08-06T03:33:34;17.70;74.80
7666;DHT22;3875;46.562;4.898;2023-08-06T03:36:00;17.60;74.40
7666;DHT22;3875;46.562;4.898;2023-08-06T03:38:25;17.50;74.90
7666;DHT22;3875;46.562;4.898;2023-08-06T03:40:51;17.40;74.60
7666;DHT22;3875;46.562;4.898;2023-08-06T03:43:17;17.30;74.90
7666;DHT22;3875;46.562;4.898;2023-08-06T03:45:43;17.30;75.30
7666;DHT22;3875;46.562;4.898;2023-08-06T03:48:09;17.30;75.60
7666;DHT22;3875;46.562;4.898;2023-08-06T03:50:34;17.30;76.70
7666;DHT22;3875;46.562;4.898;2023-08-06T03:53:00;17.10;78.60
7666;DHT22;3875;46.562;4.898;2023-08-06T03:55:26;16.80;79.40
7666;DHT22;3875;46.562;4.898;2023-08-06T03:57:52;16.70;80.20
7666;DHT22;3875;46.562;4.898;2023-08-06T04:00:17;16.70;80.20
7666;DHT22;3875;46.562;4.898;2023-08-06T04:02:43;16.70;81.50
7666;DHT22;3875;46.562;4.898;2023-08-06T04:05:09;16.70;81.50
7666;DHT22;3875;46.562;4.898;2023-08-06T04:07:34;16.40;82.10
7666;DHT22;3875;46.562;4.898;2023-08-06T04:10:02;16.40;82.20
7666;DHT22;3875;46.562;4.898;2023-08-06T04:12:28;16.40;82.20
7666;DHT22;3875;46.562;4.898;2023-08-06T04:14:55;16.40;82.10
7666;DHT22;3875;46.562;4.898;2023-08-06T04:17:22;16.50;82.00
7666;DHT22;3875;46.562;4.898;2023-08-06T04:19:52;16.50;81.90
7666;DHT22;3875;46.562;4.898;2023-08-06T04:22:19;16.40;82.30
7666;DHT22;3875;46.562;4.898;2023-08-06T04:24:44;16.40;82.40
7666;DHT22;3875;46.562;4.898;2023-08-06T04:27:11;16.40;82.50
7666;DHT22;3875;46.562;4.898;2023-08-06T04:29:37;16.50;82.40
7666;DHT22;3875;46.562;4.898;2023-08-06T04:32:08;16.50;82.40
7666;DHT22;3875;46.562;4.898;2023-08-06T04:37:01;16.50;82.30
7666;DHT22;3875;46.562;4.898;2023-08-06T04:39:27;16.50;82.20
7666;DHT22;3875;46.562;4.898;2023-08-06T04:41:52;16.60;82.10
7666;DHT22;3875;46.562;4.898;2023-08-06T04:44:18;16.60;82.10
7666;DHT22;3875;46.562;4.898;2023-08-06T04:46:44;16.60;82.10
7666;DHT22;3875;46.562;4.898;2023-08-06T04:49:09;16.60;82.00
7666;DHT22;3875;46.562;4.898;2023-08-06T04:51:35;16.60;82.10
7666;DHT22;3875;46.562;4.898;2023-08-06T04:54:01;16.60;81.90
7666;DHT22;3875;46.562;4.898;2023-08-06T04:56:26;16.60;81.90
7666;DHT22;3875;46.562;4.898;2023-08-06T04:58:52;16.60;82.50
7666;DHT22;3875;46.562;4.898;2023-08-06T05:01:18;16.60;82.80
7666;DHT22;3875;46.562;4.898;2023-08-06T05:03:44;16.50;83.00
7666;DHT22;3875;46.562;4.898;2023-08-06T05:06:09;16.40;83.40
7666;DHT22;3875;46.562;4.898;2023-08-06T05:08:36;16.40;83.80
7666;DHT22;3875;46.562;4.898;2023-08-06T05:11:01;16.30;83.90
7666;DHT22;3875;46.562;4.898;2023-08-06T05:13:27;16.30;84.30
7666;DHT22;3875;46.562;4.898;2023-08-06T05:15:53;16.30;84.20
7666;DHT22;3875;46.562;4.898;2023-08-06T05:18:19;16.30;84.10
7666;DHT22;3875;46.562;4.898;2023-08-06T05:20:45;16.30;84.20
7666;DHT22;3875;46.562;4.898;2023-08-06T05:23:11;16.20;84.40
7666;DHT22;3875;46.562;4.898;2023-08-06T05:25:37;16.20;84.30
7666;DHT22;3875;46.562;4.898;2023-08-06T05:28:03;16.30;84.10
7666;DHT22;3875;46.562;4.898;2023-08-06T05:30:29;16.40;84.30
7666;DHT22;3875;46.562;4.898;2023-08-06T05:32:55;16.50;84.10
7666;DHT22;3875;46.562;4.898;2023-08-06T05:35:21;16.40;84.20
7666;DHT22;3875;46.562;4.898;2023-08-06T05:37:47;16.40;84.00
7666;DHT22;3875;46.562;4.898;2023-08-06T05:40:13;16.40;84.10
7666;DHT22;3875;46.562;4.898;2023-08-06T05:42:40;16.50;83.90
7666;DHT22;3875;46.562;4.898;2023-08-06T05:45:06;16.50;83.90
7666;DHT22;3875;46.562;4.898;2023-08-06T05:47:31;16.50;83.90
7666;DHT22;3875;46.562;4.898;2023-08-06T05:49:57;16.50;83.80
7666;DHT22;3875;46.562;4.898;2023-08-06T05:52:23;16.40;83.70
7666;DHT22;3875;46.562;4.898;2023-08-06T05:54:49;16.40;84.00
7666;DHT22;3875;46.562;4.898;2023-08-06T05:57:15;16.20;84.30
7666;DHT22;3875;46.562;4.898;2023-08-06T05:59:41;16.20;84.70
7666;DHT22;3875;46.562;4.898;2023-08-06T06:02:07;16.20;84.70
7666;DHT22;3875;46.562;4.898;2023-08-06T06:04:32;16.20;84.60
7666;DHT22;3875;46.562;4.898;2023-08-06T06:06:58;16.20;84.50
7666;DHT22;3875;46.562;4.898;2023-08-06T06:09:24;16.30;84.50
7666;DHT22;3875;46.562;4.898;2023-08-06T06:11:49;16.30;84.30
7666;DHT22;3875;46.562;4.898;2023-08-06T06:14:17;16.30;84.30
7666;DHT22;3875;46.562;4.898;2023-08-06T06:16:42;16.20;85.10
7666;DHT22;3875;46.562;4.898;2023-08-06T06:19:08;16.20;85.00
7666;DHT22;3875;46.562;4.898;2023-08-06T06:21:34;16.20;85.10
7666;DHT22;3875;46.562;4.898;2023-08-06T06:23:59;16.10;85.60
7666;DHT22;3875;46.562;4.898;2023-08-06T06:26:25;16.00;86.20
7666;DHT22;3875;46.562;4.898;2023-08-06T06:28:51;16.00;86.00
7666;DHT22;3875;46.562;4.898;2023-08-06T06:31:16;16.00;86.30
7666;DHT22;3875;46.562;4.898;2023-08-06T06:33:42;16.00;86.50
7666;DHT22;3875;46.562;4.898;2023-08-06T06:36:07;16.00;86.30
7666;DHT22;3875;46.562;4.898;2023-08-06T06:38:34;16.00;86.40
7666;DHT22;3875;46.562;4.898;2023-08-06T06:40:59;16.00;86.80
7666;DHT22;3875;46.562;4.898;2023-08-06T06:43:26;16.00;86.80
7666;DHT22;3875;46.562;4.898;2023-08-06T06:45:58;16.00;87.00
7666;DHT22;3875;46.562;4.898;2023-08-06T06:48:28;16.00;87.20
7666;DHT22;3875;46.562;4.898;2023-08-06T06:50:54;15.90;87.50
7666;DHT22;3875;46.562;4.898;2023-08-06T06:53:20;15.90;88.10
7666;DHT22;3875;46.562;4.898;2023-08-06T06:55:47;15.90;88.00
7666;DHT22;3875;46.562;4.898;2023-08-06T06:58:15;16.00;88.30
7666;DHT22;3875;46.562;4.898;2023-08-06T07:00:41;16.00;88.00
7666;DHT22;3875;46.562;4.898;2023-08-06T07:03:07;16.00;88.20
7666;DHT22;3875;46.562;4.898;2023-08-06T07:05:32;16.00;88.10
7666;DHT22;3875;46.562;4.898;2023-08-06T07:07:58;15.90;88.20
7666;DHT22;3875;46.562;4.898;2023-08-06T07:10:24;15.90;88.30
7666;DHT22;3875;46.562;4.898;2023-08-06T07:12:49;15.90;88.80
7666;DHT22;3875;46.562;4.898;2023-08-06T07:15:15;16.00;88.90
7666;DHT22;3875;46.562;4.898;2023-08-06T07:17:43;16.00;89.00
7666;DHT22;3875;46.562;4.898;2023-08-06T07:20:08;16.10;88.50
7666;DHT22;3875;46.562;4.898;2023-08-06T07:22:34;16.10;88.50
7666;DHT22;3875;46.562;4.898;2023-08-06T07:25:01;16.20;88.40
7666;DHT22;3875;46.562;4.898;2023-08-06T07:27:26;16.20;88.40
7666;DHT22;3875;46.562;4.898;2023-08-06T07:29:52;16.10;88.00
7666;DHT22;3875;46.562;4.898;2023-08-06T07:32:18;16.00;88.40
7666;DHT22;3875;46.562;4.898;2023-08-06T07:34:43;16.00;88.90
7666;DHT22;3875;46.562;4.898;2023-08-06T07:37:09;16.00;88.80
7666;DHT22;3875;46.562;4.898;2023-08-06T07:39:35;16.10;88.70
7666;DHT22;3875;46.562;4.898;2023-08-06T07:42:00;16.20;88.60
7666;DHT22;3875;46.562;4.898;2023-08-06T07:44:29;16.30;88.30
7666;DHT22;3875;46.562;4.898;2023-08-06T07:46:55;16.30;88.70
7666;DHT22;3875;46.562;4.898;2023-08-06T07:49:21;16.30;88.70
7666;DHT22;3875;46.562;4.898;2023-08-06T07:51:47;16.30;89.00
7666;DHT22;3875;46.562;4.898;2023-08-06T07:54:13;16.20;89.10
7666;DHT22;3875;46.562;4.898;2023-08-06T07:56:38;16.30;89.50
7666;DHT22;3875;46.562;4.898;2023-08-06T07:59:04;16.50;89.50
7666;DHT22;3875;46.562;4.898;2023-08-06T08:01:30;16.70;89.20
7666;DHT22;3875;46.562;4.898;2023-08-06T08:03:55;16.80;88.70
7666;DHT22;3875;46.562;4.898;2023-08-06T08:06:21;16.80;88.40
7666;DHT22;3875;46.562;4.898;2023-08-06T08:08:47;16.80;88.20
7666;DHT22;3875;46.562;4.898;2023-08-06T08:11:13;16.90;88.30
7666;DHT22;3875;46.562;4.898;2023-08-06T08:13:39;17.00;87.80
7666;DHT22;3875;46.562;4.898;2023-08-06T08:16:05;17.10;87.30
7666;DHT22;3875;46.562;4.898;2023-08-06T08:18:31;17.30;87.20
7666;DHT22;3875;46.562;4.898;2023-08-06T08:20:57;17.40;86.50
7666;DHT22;3875;46.562;4.898;2023-08-06T08:23:22;17.40;86.30
7666;DHT22;3875;46.562;4.898;2023-08-06T08:25:48;17.30;86.10
7666;DHT22;3875;46.562;4.898;2023-08-06T08:28:14;17.40;86.50
7666;DHT22;3875;46.562;4.898;2023-08-06T08:30:41;17.50;86.30
7666;DHT22;3875;46.562;4.898;2023-08-06T08:33:06;17.40;85.30
7666;DHT22;3875;46.562;4.898;2023-08-06T08:35:33;17.30;85.70
7666;DHT22;3875;46.562;4.898;2023-08-06T08:37:59;17.20;86.40
7666;DHT22;3875;46.562;4.898;2023-08-06T08:40:31;17.10;86.30
7666;DHT22;3875;46.562;4.898;2023-08-06T08:42:58;16.90;86.60
7666;DHT22;3875;46.562;4.898;2023-08-06T08:45:26;16.70;87.00
7666;DHT22;3875;46.562;4.898;2023-08-06T08:47:54;16.70;87.50
7666;DHT22;3875;46.562;4.898;2023-08-06T08:50:20;16.90;88.20
7666;DHT22;3875;46.562;4.898;2023-08-06T08:52:46;16.90;87.80
7666;DHT22;3875;46.562;4.898;2023-08-06T08:55:14;16.90;88.10
7666;DHT22;3875;46.562;4.898;2023-08-06T08:57:41;17.00;88.20
7666;DHT22;3875;46.562;4.898;2023-08-06T09:00:07;17.10;87.90
7666;DHT22;3875;46.562;4.898;2023-08-06T09:02:33;17.10;86.80
7666;DHT22;3875;46.562;4.898;2023-08-06T09:05:00;17.10;87.00
7666;DHT22;3875;46.562;4.898;2023-08-06T09:07:34;17.30;87.00
7666;DHT22;3875;46.562;4.898;2023-08-06T09:10:02;17.40;86.90
7666;DHT22;3875;46.562;4.898;2023-08-06T09:12:31;17.60;86.20
7666;DHT22;3875;46.562;4.898;2023-08-06T09:14:57;17.60;85.50
7666;DHT22;3875;46.562;4.898;2023-08-06T09:17:23;17.60;85.90
7666;DHT22;3875;46.562;4.898;2023-08-06T09:19:49;17.50;85.30
7666;DHT22;3875;46.562;4.898;2023-08-06T09:22:15;17.20;86.10
7666;DHT22;3875;46.562;4.898;2023-08-06T09:24:42;17.20;86.90
7666;DHT22;3875;46.562;4.898;2023-08-06T09:27:14;17.30;86.80
7666;DHT22;3875;46.562;4.898;2023-08-06T09:29:44;17.40;86.50
7666;DHT22;3875;46.562;4.898;2023-08-06T09:32:11;17.50;86.00
7666;DHT22;3875;46.562;4.898;2023-08-06T09:34:39;17.40;86.40
7666;DHT22;3875;46.562;4.898;2023-08-06T09:37:06;17.40;86.30
7666;DHT22;3875;46.562;4.898;2023-08-06T09:39:31;17.40;87.00
7666;DHT22;3875;46.562;4.898;2023-08-06T09:41:58;17.50;86.90
7666;DHT22;3875;46.562;4.898;2023-08-06T09:44:26;17.70;86.40
7666;DHT22;3875;46.562;4.898;2023-08-06T09:46:57;17.80;86.10
7666;DHT22;3875;46.562;4.898;2023-08-06T09:54:25;18.60;84.90
7666;DHT22;3875;46.562;4.898;2023-08-06T09:56:56;18.60;85.00
7666;DHT22;3875;46.562;4.898;2023-08-06T09:59:23;18.60;85.00
7666;DHT22;3875;46.562;4.898;2023-08-06T10:01:49;18.70;84.50
7666;DHT22;3875;46.562;4.898;2023-08-06T10:04:15;18.70;84.60
7666;DHT22;3875;46.562;4.898;2023-08-06T10:06:47;18.80;84.10
7666;DHT22;3875;46.562;4.898;2023-08-06T10:09:15;18.80;84.00
7666;DHT22;3875;46.562;4.898;2023-08-06T10:11:42;18.90;84.20
7666;DHT22;3875;46.562;4.898;2023-08-06T10:14:18;18.90;83.60
7666;DHT22;3875;46.562;4.898;2023-08-06T10:16:45;18.80;83.60
7666;DHT22;3875;46.562;4.898;2023-08-06T10:19:12;18.70;83.20
7666;DHT22;3875;46.562;4.898;2023-08-06T10:21:39;18.50;82.00
7666;DHT22;3875;46.562;4.898;2023-08-06T10:24:08;18.30;82.40
7666;DHT22;3875;46.562;4.898;2023-08-06T10:26:36;18.00;83.90
7666;DHT22;3875;46.562;4.898;2023-08-06T10:29:35;17.90;85.50
7666;DHT22;3875;46.562;4.898;2023-08-06T10:32:01;17.90;85.40
7666;DHT22;3875;46.562;4.898;2023-08-06T10:34:53;18.00;85.40
7666;DHT22;3875;46.562;4.898;2023-08-06T10:37:20;18.30;85.20
7666;DHT22;3875;46.562;4.898;2023-08-06T10:39:53;18.40;84.30
7666;DHT22;3875;46.562;4.898;2023-08-06T10:42:22;18.60;84.30
7666;DHT22;3875;46.562;4.898;2023-08-06T10:45:12;18.90;84.00
7666;DHT22;3875;46.562;4.898;2023-08-06T10:47:41;19.20;83.10
7666;DHT22;3875;46.562;4.898;2023-08-06T10:50:13;18.90;81.50
7666;DHT22;3875;46.562;4.898;2023-08-06T10:52:39;18.80;82.10
7666;DHT22;3875;46.562;4.898;2023-08-06T10:55:05;18.70;83.30
7666;DHT22;3875;46.562;4.898;2023-08-06T10:57:31;18.60;83.60
7666;DHT22;3875;46.562;4.898;2023-08-06T10:59:57;18.30;83.40
7666;DHT22;3875;46.562;4.898;2023-08-06T11:02:23;18.50;84.10
7666;DHT22;3875;46.562;4.898;2023-08-06T11:04:49;18.40;83.60
7666;DHT22;3875;46.562;4.898;2023-08-06T11:07:14;18.40;84.60
7666;DHT22;3875;46.562;4.898;2023-08-06T11:09:40;18.60;84.50
7666;DHT22;3875;46.562;4.898;2023-08-06T11:12:12;18.80;84.20
7666;DHT22;3875;46.562;4.898;2023-08-06T11:14:49;18.90;83.10
7666;DHT22;3875;46.562;4.898;2023-08-06T11:17:15;19.00;83.60
7666;DHT22;3875;46.562;4.898;2023-08-06T11:19:41;19.00;82.70
7666;DHT22;3875;46.562;4.898;2023-08-06T11:22:07;18.90;82.90
7666;DHT22;3875;46.562;4.898;2023-08-06T11:24:32;18.70;82.80
7666;DHT22;3875;46.562;4.898;2023-08-06T11:26:58;18.80;83.70
7666;DHT22;3875;46.562;4.898;2023-08-06T11:29:24;18.90;83.10
7666;DHT22;3875;46.562;4.898;2023-08-06T11:31:50;19.50;83.10
7666;DHT22;3875;46.562;4.898;2023-08-06T11:34:16;19.80;79.90
7666;DHT22;3875;46.562;4.898;2023-08-06T11:36:42;19.80;78.20
7666;DHT22;3875;46.562;4.898;2023-08-06T11:39:09;20.00;79.20
7666;DHT22;3875;46.562;4.898;2023-08-06T11:41:36;20.40;77.10
7666;DHT22;3875;46.562;4.898;2023-08-06T11:44:03;20.40;76.40
7666;DHT22;3875;46.562;4.898;2023-08-06T11:46:29;20.50;76.50
7666;DHT22;3875;46.562;4.898;2023-08-06T11:49:14;20.50;75.40
7666;DHT22;3875;46.562;4.898;2023-08-06T11:51:40;20.20;73.50
7666;DHT22;3875;46.562;4.898;2023-08-06T11:54:05;19.80;75.60
7666;DHT22;3875;46.562;4.898;2023-08-06T11:56:32;19.60;77.20
7666;DHT22;3875;46.562;4.898;2023-08-06T11:58:58;19.50;77.10
7666;DHT22;3875;46.562;4.898;2023-08-06T12:01:25;19.40;76.80
7666;DHT22;3875;46.562;4.898;2023-08-06T12:03:50;19.40;76.20
7666;DHT22;3875;46.562;4.898;2023-08-06T12:06:16;19.40;76.30
7666;DHT22;3875;46.562;4.898;2023-08-06T12:08:42;19.60;77.60
7666;DHT22;3875;46.562;4.898;2023-08-06T12:11:07;19.80;74.50
7666;DHT22;3875;46.562;4.898;2023-08-06T12:13:34;20.20;74.90
7666;DHT22;3875;46.562;4.898;2023-08-06T12:15:59;20.10;73.00
7666;DHT22;3875;46.562;4.898;2023-08-06T12:18:25;19.90;73.60
7666;DHT22;3875;46.562;4.898;2023-08-06T12:20:51;20.20;75.00
7666;DHT22;3875;46.562;4.898;2023-08-06T12:23:17;20.50;74.50
7666;DHT22;3875;46.562;4.898;2023-08-06T12:25:43;21.00;73.50
7666;DHT22;3875;46.562;4.898;2023-08-06T12:28:10;21.20;71.40
7666;DHT22;3875;46.562;4.898;2023-08-06T12:30:36;21.20;72.20
7666;DHT22;3875;46.562;4.898;2023-08-06T12:33:01;21.30;72.00
7666;DHT22;3875;46.562;4.898;2023-08-06T12:35:27;21.50;71.20
7666;DHT22;3875;46.562;4.898;2023-08-06T12:37:53;21.60;69.30
7666;DHT22;3875;46.562;4.898;2023-08-06T12:40:20;22.00;70.40
7666;DHT22;3875;46.562;4.898;2023-08-06T12:42:46;22.00;69.70
7666;DHT22;3875;46.562;4.898;2023-08-06T12:45:12;21.70;69.30
7666;DHT22;3875;46.562;4.898;2023-08-06T12:47:37;21.70;70.60
7666;DHT22;3875;46.562;4.898;2023-08-06T12:50:04;22.10;69.50
7666;DHT22;3875;46.562;4.898;2023-08-06T12:52:29;22.30;69.10
7666;DHT22;3875;46.562;4.898;2023-08-06T12:54:55;22.50;69.80
7666;DHT22;3875;46.562;4.898;2023-08-06T12:57:21;22.70;69.00
7666;DHT22;3875;46.562;4.898;2023-08-06T12:59:46;22.70;67.20
7666;DHT22;3875;46.562;4.898;2023-08-06T13:02:13;22.50;67.60
7666;DHT22;3875;46.562;4.898;2023-08-06T13:04:39;22.60;65.90
7666;DHT22;3875;46.562;4.898;2023-08-06T13:09:32;22.50;65.30
7666;DHT22;3875;46.562;4.898;2023-08-06T13:11:58;22.50;64.30
7666;DHT22;3875;46.562;4.898;2023-08-06T13:14:25;22.70;65.60
7666;DHT22;3875;46.562;4.898;2023-08-06T13:16:50;22.90;65.30
7666;DHT22;3875;46.562;4.898;2023-08-06T13:24:15;22.80;64.20
7666;DHT22;3875;46.562;4.898;2023-08-06T13:26:41;22.50;64.90
7666;DHT22;3875;46.562;4.898;2023-08-06T13:31:32;22.90;61.90
7666;DHT22;3875;46.562;4.898;2023-08-06T13:33:58;22.90;62.70
7666;DHT22;3875;46.562;4.898;2023-08-06T13:36:25;22.60;63.70
7666;DHT22;3875;46.562;4.898;2023-08-06T13:38:51;22.80;64.10
7666;DHT22;3875;46.562;4.898;2023-08-06T13:41:17;22.90;63.20
7666;DHT22;3875;46.562;4.898;2023-08-06T13:43:43;22.70;62.00
7666;DHT22;3875;46.562;4.898;2023-08-06T13:46:10;22.50;63.10
7666;DHT22;3875;46.562;4.898;2023-08-06T13:48:40;22.50;63.20
7666;DHT22;3875;46.562;4.898;2023-08-06T13:51:05;22.00;63.60
7666;DHT22;3875;46.562;4.898;2023-08-06T13:53:31;22.10;64.90
7666;DHT22;3875;46.562;4.898;2023-08-06T13:55:57;22.20;65.20
7666;DHT22;3875;46.562;4.898;2023-08-06T13:58:23;22.60;63.40
7666;DHT22;3875;46.562;4.898;2023-08-06T14:00:49;22.60;60.20
7666;DHT22;3875;46.562;4.898;2023-08-06T14:03:15;22.50;60.40
7666;DHT22;3875;46.562;4.898;2023-08-06T14:05:41;22.90;61.90
7666;DHT22;3875;46.562;4.898;2023-08-06T14:08:07;23.10;61.90
7666;DHT22;3875;46.562;4.898;2023-08-06T14:10:32;23.30;61.10
7666;DHT22;3875;46.562;4.898;2023-08-06T14:12:58;23.30;61.30
7666;DHT22;3875;46.562;4.898;2023-08-06T14:15:23;23.10;61.50
7666;DHT22;3875;46.562;4.898;2023-08-06T14:20:15;22.90;61.50
7666;DHT22;3875;46.562;4.898;2023-08-06T14:22:41;22.90;61.60
7666;DHT22;3875;46.562;4.898;2023-08-06T14:25:07;22.80;61.80
7666;DHT22;3875;46.562;4.898;2023-08-06T14:27:32;23.00;63.10
7666;DHT22;3875;46.562;4.898;2023-08-06T14:29:58;23.10;63.00
7666;DHT22;3875;46.562;4.898;2023-08-06T14:32:23;23.20;60.90
7666;DHT22;3875;46.562;4.898;2023-08-06T14:34:49;23.20;61.60
7666;DHT22;3875;46.562;4.898;2023-08-06T14:37:15;23.30;60.70
7666;DHT22;3875;46.562;4.898;2023-08-06T14:39:41;23.20;61.30
7666;DHT22;3875;46.562;4.898;2023-08-06T14:42:06;23.40;62.10
7666;DHT22;3875;46.562;4.898;2023-08-06T14:44:32;23.30;61.10
7666;DHT22;3875;46.562;4.898;2023-08-06T14:46:58;23.20;61.00
7666;DHT22;3875;46.562;4.898;2023-08-06T14:49:23;23.40;61.70
7666;DHT22;3875;46.562;4.898;2023-08-06T14:51:49;23.90;61.30
7666;DHT22;3875;46.562;4.898;2023-08-06T14:54:15;24.20;60.10
7666;DHT22;3875;46.562;4.898;2023-08-06T14:56:41;24.00;60.10
7666;DHT22;3875;46.562;4.898;2023-08-06T14:59:06;24.10;60.30
7666;DHT22;3875;46.562;4.898;2023-08-06T15:01:32;24.20;61.10
7666;DHT22;3875;46.562;4.898;2023-08-06T15:03:58;24.40;59.80
7666;DHT22;3875;46.562;4.898;2023-08-06T15:06:24;24.60;59.70
7666;DHT22;3875;46.562;4.898;2023-08-06T15:08:50;24.60;59.10
7666;DHT22;3875;46.562;4.898;2023-08-06T15:11:15;24.50;59.20
7666;DHT22;3875;46.562;4.898;2023-08-06T15:13:41;24.70;58.90
7666;DHT22;3875;46.562;4.898;2023-08-06T15:16:07;24.60;59.20
7666;DHT22;3875;46.562;4.898;2023-08-06T15:18:32;25.00;58.10
7666;DHT22;3875;46.562;4.898;2023-08-06T15:20:58;24.90;56.10
7666;DHT22;3875;46.562;4.898;2023-08-06T15:23:24;24.70;56.40
7666;DHT22;3875;46.562;4.898;2023-08-06T15:25:50;24.30;56.70
7666;DHT22;3875;46.562;4.898;2023-08-06T15:28:16;24.10;56.90
7666;DHT22;3875;46.562;4.898;2023-08-06T15:30:50;23.70;57.30
7666;DHT22;3875;46.562;4.898;2023-08-06T15:33:17;23.30;57.90
7666;DHT22;3875;46.562;4.898;2023-08-06T15:35:42;23.10;58.20
7666;DHT22;3875;46.562;4.898;2023-08-06T15:38:08;23.40;59.60
7666;DHT22;3875;46.562;4.898;2023-08-06T15:40:34;23.80;58.20
7666;DHT22;3875;46.562;4.898;2023-08-06T15:42:59;23.80;58.10
7666;DHT22;3875;46.562;4.898;2023-08-06T15:45:25;23.30;58.10
7666;DHT22;3875;46.562;4.898;2023-08-06T15:47:50;22.90;58.70
7666;DHT22;3875;46.562;4.898;2023-08-06T15:50:16;23.10;59.50
7666;DHT22;3875;46.562;4.898;2023-08-06T15:52:42;23.10;59.00
7666;DHT22;3875;46.562;4.898;2023-08-06T15:55:08;23.30;58.70
7666;DHT22;3875;46.562;4.898;2023-08-06T15:57:34;23.20;58.80
7666;DHT22;3875;46.562;4.898;2023-08-06T16:00:00;23.30;60.20
7666;DHT22;3875;46.562;4.898;2023-08-06T16:02:27;23.60;59.50
7666;DHT22;3875;46.562;4.898;2023-08-06T16:04:53;23.80;59.30
7666;DHT22;3875;46.562;4.898;2023-08-06T16:07:20;24.00;59.30
7666;DHT22;3875;46.562;4.898;2023-08-06T16:09:46;24.60;57.60
7666;DHT22;3875;46.562;4.898;2023-08-06T16:12:11;24.60;57.30
7666;DHT22;3875;46.562;4.898;2023-08-06T16:14:37;24.40;56.30
7666;DHT22;3875;46.562;4.898;2023-08-06T16:17:04;23.60;57.10
7666;DHT22;3875;46.562;4.898;2023-08-06T16:19:29;23.50;57.40
7666;DHT22;3875;46.562;4.898;2023-08-06T16:21:55;23.20;57.90
7666;DHT22;3875;46.562;4.898;2023-08-06T16:24:21;22.90;59.20